Time;durP1;ratioP1;P1;durP2;ratioP2;P2;SDS_P1;SDS_P2;PMS_P1;PMS_P2;Temp;Humidity;BMP_temperature;BMP_pressure;BME280_temperature;BME280_humidity;BME280_pressure;Samples;Min_cycle;Max_cycle;Signal;HPM_P1;HPM_P2
2022/10/16 00:02:14;;;;;;;5.80;2.70;;;13.20;99.90;;;;;;5101145;27;20469;-71
2022/10/16 00:04:40;;;;;;;4.97;2.80;;;13.20;99.90;;;;;;5093280;28;20456;-71
2022/10/16 00:07:07;;;;;;;6.20;2.37;;;13.20;99.90;;;;;;5093792;28;20852;-71
2022/10/16 00:09:33;;;;;;;3.13;2.93;;;13.10;99.90;;;;;;5093800;28;20469;-71
2022/10/16 00:12:00;;;;;;;5.10;2.50;;;13.10;99.90;;;;;;5093451;28;20828;-71
2022/10/16 00:14:28;;;;;;;2.97;2.70;;;13.10;99.90;;;;;;5093263;28;20858;-71
2022/10/16 00:16:55;;;;;;;3.77;2.50;;;13.10;99.90;;;;;;5093513;28;20470;-71
2022/10/16 00:19:21;;;;;;;5.87;2.87;;;13.10;99.90;;;;;;5093387;28;20480;-71
2022/10/16 00:21:48;;;;;;;2.93;2.53;;;13.10;99.90;;;;;;5093383;28;20501;-71
2022/10/16 00:24:15;;;;;;;2.50;2.30;;;13.10;99.90;;;;;;5092973;28;20444;-71
2022/10/16 00:26:42;;;;;;;8.33;2.43;;;13.10;99.90;;;;;;5093373;28;20520;-71
2022/10/16 00:29:09;;;;;;;2.67;2.50;;;13.10;99.90;;;;;;5092969;28;20454;-71
2022/10/16 00:31:37;;;;;;;4.83;2.70;;;13.10;99.90;;;;;;5092984;28;20506;-71
2022/10/16 00:34:04;;;;;;;3.20;2.90;;;13.10;99.90;;;;;;5092402;28;20440;-72
2022/10/16 00:36:31;;;;;;;6.00;2.80;;;13.10;99.90;;;;;;5093159;28;20519;-71
2022/10/16 00:39:00;;;;;;;2.93;2.73;;;13.10;99.90;;;;;;5093546;28;20515;-71
2022/10/16 00:41:27;;;;;;;3.53;3.13;;;13.10;99.90;;;;;;5092550;28;20471;-71
2022/10/16 00:43:56;;;;;;;3.40;3.10;;;13.10;99.90;;;;;;5092774;28;20451;-71
2022/10/16 00:46:24;;;;;;;3.63;3.27;;;13.20;99.90;;;;;;5106402;28;20478;-71
2022/10/16 00:48:57;;;;;;;3.90;3.60;;;13.20;99.90;;;;;;5112694;28;20456;-71
2022/10/16 00:51:28;;;;;;;3.90;3.60;;;13.30;99.90;;;;;;5112925;28;20477;-71
2022/10/16 00:53:57;;;;;;;4.63;3.73;;;13.30;99.90;;;;;;5099183;27;20455;-71
2022/10/16 00:56:23;;;;;;;4.10;3.80;;;13.30;99.90;;;;;;5092961;28;20459;-71
2022/10/16 00:58:50;;;;;;;5.40;3.57;;;13.30;99.90;;;;;;5092906;28;20451;-71
2022/10/16 01:01:17;;;;;;;4.30;3.90;;;13.30;99.90;;;;;;5111434;28;20514;-71
2022/10/16 01:03:43;;;;;;;6.30;3.93;;;13.30;99.90;;;;;;5107268;27;20447;-71
2022/10/16 01:06:24;;;;;;;5.37;4.07;;;13.30;99.90;;;;;;5092494;28;21081;-71
2022/10/16 01:09:07;;;;;;;7.60;4.17;;;13.30;99.90;;;;;;5109790;28;20474;-71
2022/10/16 01:11:39;;;;;;;7.93;3.93;;;13.40;99.90;;;;;;5112436;28;20474;-71
2022/10/16 01:14:15;;;;;;;4.17;3.87;;;13.30;99.90;;;;;;5096269;28;20453;-71
2022/10/16 01:16:48;;;;;;;6.40;3.37;;;13.40;99.90;;;;;;5092684;28;20447;-71
2022/10/16 01:19:20;;;;;;;3.77;3.57;;;13.40;99.90;;;;;;5092480;28;20446;-72
2022/10/16 01:21:52;;;;;;;3.70;3.50;;;13.30;99.90;;;;;;5108966;28;20462;-71
2022/10/16 01:24:27;;;;;;;9.47;3.27;;;13.40;99.90;;;;;;5111152;28;20446;-71
2022/10/16 01:27:12;;;;;;;3.37;3.17;;;13.40;99.90;;;;;;5112386;28;20482;-71
2022/10/16 01:29:45;;;;;;;3.47;3.27;;;13.30;99.90;;;;;;5112266;28;20461;-71
2022/10/16 01:32:29;;;;;;;3.70;3.23;;;13.30;99.90;;;;;;5112194;28;20478;-71
2022/10/16 01:35:02;;;;;;;6.60;3.90;;;13.20;99.90;;;;;;5105603;28;20461;-71
2022/10/16 01:37:35;;;;;;;10.50;3.80;;;13.20;99.90;;;;;;5110632;28;20455;-71
2022/10/16 01:40:06;;;;;;;4.40;3.50;;;13.20;99.90;;;;;;5112241;28;20489;-71
2022/10/16 01:42:38;;;;;;;3.97;3.17;;;13.20;99.90;;;;;;5111575;28;20478;-71
2022/10/16 01:45:07;;;;;;;3.57;3.27;;;13.20;99.90;;;;;;5092131;28;20447;-71
2022/10/16 01:47:36;;;;;;;4.50;3.37;;;13.10;99.90;;;;;;5098011;28;20486;-71
2022/10/16 01:50:04;;;;;;;9.53;3.50;;;13.10;99.90;;;;;;5112362;28;20452;-71
2022/10/16 01:52:33;;;;;;;6.20;3.27;;;13.10;99.90;;;;;;5108217;28;20475;-71
2022/10/16 01:55:02;;;;;;;3.90;3.53;;;13.10;99.90;;;;;;5091573;28;21065;-71
2022/10/16 01:57:30;;;;;;;11.10;3.67;;;13.10;99.90;;;;;;5092215;28;20793;-71
2022/10/16 02:00:04;;;;;;;3.87;3.57;;;13.10;99.90;;;;;;5091811;28;20476;-71
2022/10/16 02:02:32;;;;;;;3.67;3.37;;;13.10;99.90;;;;;;5111305;27;21026;-71
2022/10/16 02:05:04;;;;;;;11.80;3.30;;;13.00;99.90;;;;;;5099500;28;20459;-71
2022/10/16 02:07:31;;;;;;;9.00;3.83;;;13.00;99.90;;;;;;5091631;28;20483;-71
2022/10/16 02:09:57;;;;;;;4.40;3.20;;;13.00;99.90;;;;;;5092018;28;20795;-71
2022/10/16 02:12:28;;;;;;;8.13;4.10;;;13.00;99.90;;;;;;5091417;28;20472;-71
2022/10/16 02:14:55;;;;;;;4.30;3.90;;;13.00;99.90;;;;;;5109097;28;20453;-71
2022/10/16 02:17:23;;;;;;;3.90;3.57;;;13.00;99.90;;;;;;5104429;28;20446;-72
2022/10/16 02:19:53;;;;;;;8.53;3.20;;;13.00;99.90;;;;;;5098448;28;20461;-71
2022/10/16 02:22:25;;;;;;;6.43;3.03;;;12.90;99.90;;;;;;5111552;28;20470;-71
2022/10/16 02:24:57;;;;;;;5.60;3.70;;;12.90;99.90;;;;;;5110841;28;20463;-72
2022/10/16 02:27:28;;;;;;;9.40;3.03;;;12.90;99.90;;;;;;5111708;28;20555;-72
2022/10/16 02:29:59;;;;;;;4.00;3.67;;;12.90;99.90;;;;;;5099402;28;20451;-71
2022/10/16 02:32:32;;;;;;;5.80;3.20;;;12.90;99.90;;;;;;5090800;28;20480;-71
2022/10/16 02:35:00;;;;;;;3.93;2.80;;;12.90;99.90;;;;;;5092029;28;20454;-71
2022/10/16 02:37:27;;;;;;;3.73;3.37;;;12.90;99.90;;;;;;5111671;28;20530;-71
2022/10/16 02:39:55;;;;;;;12.47;3.67;;;12.90;99.90;;;;;;5108682;28;20468;-71
2022/10/16 02:42:29;;;;;;;3.53;3.23;;;12.90;99.90;;;;;;5096229;28;20471;-71
2022/10/16 02:44:55;;;;;;;5.70;2.87;;;12.90;99.90;;;;;;5100267;28;20457;-71
2022/10/16 02:47:22;;;;;;;3.23;3.03;;;12.90;99.90;;;;;;5090924;28;20485;-71
2022/10/16 02:49:50;;;;;;;8.93;3.53;;;12.90;99.90;;;;;;5091483;28;20477;-71
2022/10/16 02:52:17;;;;;;;3.70;2.77;;;12.90;99.90;;;;;;5090859;28;20984;-71
2022/10/16 02:54:43;;;;;;;17.60;3.20;;;12.90;99.90;;;;;;5090721;28;20459;-71
2022/10/16 02:57:10;;;;;;;7.10;3.20;;;13.00;99.90;;;;;;5091025;28;20459;-71
2022/10/16 02:59:37;;;;;;;2.87;2.67;;;13.00;99.90;;;;;;5091234;28;20461;-71
2022/10/16 03:02:04;;;;;;;4.17;3.07;;;13.00;99.90;;;;;;5095623;28;20493;-71
2022/10/16 03:04:30;;;;;;;5.43;3.43;;;13.00;99.90;;;;;;5102517;27;20455;-71
2022/10/16 03:06:58;;;;;;;4.10;3.27;;;13.00;99.90;;;;;;5091088;28;20477;-71
2022/10/16 03:09:25;;;;;;;4.40;3.10;;;13.00;99.90;;;;;;5095763;28;20522;-71
2022/10/16 03:11:52;;;;;;;4.27;2.90;;;13.00;99.90;;;;;;5111021;28;20474;-71
2022/10/16 03:14:18;;;;;;;3.30;3.10;;;13.00;99.90;;;;;;5109423;28;20450;-71
2022/10/16 03:16:45;;;;;;;3.93;3.37;;;13.10;99.90;;;;;;5111101;28;20454;-71
2022/10/16 03:19:12;;;;;;;5.07;3.80;;;13.10;99.90;;;;;;5111525;28;20457;-71
2022/10/16 03:21:38;;;;;;;3.83;3.53;;;13.10;99.90;;;;;;5107483;28;20478;-71
2022/10/16 03:24:06;;;;;;;3.60;3.30;;;13.20;99.90;;;;;;5100779;28;20508;-71
2022/10/16 03:26:33;;;;;;;4.00;3.70;;;13.20;99.90;;;;;;5091203;28;20447;-71
2022/10/16 03:29:00;;;;;;;3.70;3.40;;;13.20;99.90;;;;;;5091022;28;20905;-71
2022/10/16 03:31:26;;;;;;;9.63;3.80;;;13.20;99.90;;;;;;5092504;28;20490;-71
2022/10/16 03:33:53;;;;;;;3.70;3.40;;;13.20;99.90;;;;;;5094794;28;20451;-71
2022/10/16 03:36:20;;;;;;;3.70;3.40;;;13.20;99.90;;;;;;5103530;28;20451;-72
2022/10/16 03:38:46;;;;;;;4.53;3.20;;;13.20;99.90;;;;;;5115242;28;20491;-71
2022/10/16 03:41:14;;;;;;;3.83;3.53;;;13.20;99.90;;;;;;5111678;27;20463;-71
2022/10/16 03:43:41;;;;;;;3.40;3.10;;;13.20;99.90;;;;;;5100660;28;20446;-72
2022/10/16 03:46:08;;;;;;;10.40;3.30;;;13.20;99.90;;;;;;5113779;28;20480;-72
2022/10/16 03:48:34;;;;;;;4.10;3.70;;;13.20;99.90;;;;;;5100707;28;20495;-71
2022/10/16 03:51:01;;;;;;;10.10;3.30;;;13.10;99.90;;;;;;5112264;28;20507;-71
2022/10/16 03:53:28;;;;;;;5.87;3.53;;;13.10;99.90;;;;;;5109817;28;20458;-71
2022/10/16 03:55:54;;;;;;;5.63;3.40;;;13.10;99.90;;;;;;5100637;28;20450;-71
2022/10/16 03:58:22;;;;;;;5.73;3.90;;;13.20;99.90;;;;;;5114231;28;20453;-71
2022/10/16 04:00:49;;;;;;;10.90;3.97;;;13.10;99.90;;;;;;5113976;28;20443;-72
2022/10/16 04:03:17;;;;;;;6.30;3.90;;;13.10;99.90;;;;;;5117792;27;20576;-71
2022/10/16 04:05:43;;;;;;;5.93;3.17;;;13.10;99.90;;;;;;5114120;28;20537;-71
2022/10/16 04:08:10;;;;;;;3.77;3.47;;;13.20;99.90;;;;;;5114367;28;20490;-71
2022/10/16 04:10:37;;;;;;;5.93;3.17;;;13.20;99.90;;;;;;5097302;28;20497;-71
2022/10/16 04:13:04;;;;;;;4.27;3.00;;;13.10;99.90;;;;;;5093272;28;20996;-71
2022/10/16 04:15:32;;;;;;;6.33;3.10;;;13.20;99.90;;;;;;5095298;28;20459;-71
2022/10/16 04:17:58;;;;;;;4.47;2.97;;;13.10;99.90;;;;;;5097694;28;20447;-71
2022/10/16 04:20:25;;;;;;;6.03;2.80;;;13.10;99.90;;;;;;5093995;28;20472;-71
2022/10/16 04:22:52;;;;;;;3.10;2.90;;;13.10;99.90;;;;;;5093655;28;20525;-72
2022/10/16 04:25:18;;;;;;;10.67;3.33;;;13.10;99.90;;;;;;5093474;28;20469;-72
2022/10/16 04:27:45;;;;;;;3.60;3.20;;;13.20;99.90;;;;;;5093570;28;20490;-72
2022/10/16 04:30:12;;;;;;;3.10;2.80;;;13.20;99.90;;;;;;5099739;28;20462;-71
2022/10/16 04:32:40;;;;;;;2.43;2.33;;;13.20;99.90;;;;;;5108832;28;20488;-71
2022/10/16 04:35:08;;;;;;;2.57;2.37;;;13.20;99.90;;;;;;5093668;28;20448;-71
2022/10/16 04:37:35;;;;;;;2.60;2.40;;;13.20;99.90;;;;;;5100718;28;20952;-72
2022/10/16 04:40:02;;;;;;;7.43;2.27;;;13.20;99.90;;;;;;5113462;28;20884;-72
2022/10/16 04:42:28;;;;;;;2.10;1.90;;;13.20;99.90;;;;;;5113355;28;20466;-71
2022/10/16 04:44:55;;;;;;;2.10;2.00;;;13.20;99.90;;;;;;5110276;28;20446;-71
2022/10/16 04:47:22;;;;;;;2.83;2.10;;;13.20;99.90;;;;;;5112937;28;20478;-71
2022/10/16 04:49:49;;;;;;;5.73;2.20;;;13.20;99.90;;;;;;5101469;28;20454;-72
2022/10/16 04:52:17;;;;;;;6.13;2.63;;;13.20;99.90;;;;;;5092846;28;20479;-71
2022/10/16 04:54:44;;;;;;;2.23;2.13;;;13.20;99.90;;;;;;5092869;28;20482;-71
2022/10/16 04:57:11;;;;;;;3.30;2.30;;;13.20;99.90;;;;;;5092807;28;20878;-71
2022/10/16 04:59:38;;;;;;;4.30;2.10;;;13.20;99.90;;;;;;5104616;28;20453;-72
2022/10/16 05:02:04;;;;;;;3.50;2.47;;;13.20;99.90;;;;;;5101108;27;20474;-71
2022/10/16 05:04:31;;;;;;;3.23;2.30;;;13.20;99.90;;;;;;5105526;27;20446;-71
2022/10/16 05:06:59;;;;;;;2.37;2.20;;;13.20;99.90;;;;;;5099995;28;20508;-72
2022/10/16 05:09:26;;;;;;;4.23;2.30;;;13.20;99.90;;;;;;5092836;28;20484;-71
2022/10/16 05:11:52;;;;;;;4.70;2.00;;;13.20;99.90;;;;;;5095705;28;21925;-71
2022/10/16 05:14:19;;;;;;;2.43;2.20;;;13.30;99.90;;;;;;5104943;28;21009;-71
2022/10/16 05:16:47;;;;;;;2.23;2.07;;;13.30;99.90;;;;;;5111295;28;20450;-72
2022/10/16 05:19:14;;;;;;;3.20;2.20;;;13.30;99.90;;;;;;5112799;28;20475;-71
2022/10/16 05:21:41;;;;;;;5.17;2.33;;;13.30;99.90;;;;;;5098962;28;20471;-71
2022/10/16 05:24:09;;;;;;;4.17;2.30;;;13.30;99.90;;;;;;5099191;28;20443;-71
2022/10/16 05:26:35;;;;;;;5.37;2.23;;;13.20;99.90;;;;;;5103336;28;20458;-71
2022/10/16 05:29:02;;;;;;;7.60;2.20;;;13.20;99.90;;;;;;5097574;28;20489;-71
2022/10/16 05:31:29;;;;;;;2.70;2.13;;;13.20;99.90;;;;;;5109772;28;20494;-71
2022/10/16 05:34:00;;;;;;;5.70;2.37;;;13.20;99.90;;;;;;5111419;28;20456;-72
2022/10/16 05:36:27;;;;;;;2.33;2.23;;;13.20;99.90;;;;;;5111885;28;20538;-71
2022/10/16 05:38:53;;;;;;;4.23;2.30;;;13.20;99.90;;;;;;5112673;28;20452;-71
2022/10/16 05:41:23;;;;;;;7.80;2.40;;;13.20;99.90;;;;;;5108336;28;20984;-73
2022/10/16 05:43:50;;;;;;;4.63;2.23;;;13.20;99.90;;;;;;5095513;28;20455;-73
2022/10/16 05:46:17;;;;;;;2.73;2.53;;;13.20;99.90;;;;;;5106983;28;20455;-73
2022/10/16 05:48:44;;;;;;;2.93;2.63;;;13.30;99.90;;;;;;5110969;28;20478;-73
2022/10/16 05:51:12;;;;;;;3.73;2.70;;;13.30;99.90;;;;;;5112246;28;20477;-73
2022/10/16 05:53:40;;;;;;;4.50;2.60;;;13.20;99.90;;;;;;5111285;28;20442;-73
2022/10/16 05:56:10;;;;;;;3.07;2.80;;;13.20;99.90;;;;;;5111666;28;20458;-73
2022/10/16 05:58:40;;;;;;;9.63;2.67;;;13.20;99.90;;;;;;5109932;28;20446;-74
2022/10/16 06:01:08;;;;;;;2.97;2.70;;;13.30;99.90;;;;;;5111295;28;21023;-74
2022/10/16 06:03:35;;;;;;;3.03;2.83;;;13.30;99.90;;;;;;5114268;27;20465;-74
2022/10/16 06:06:09;;;;;;;2.70;2.50;;;13.30;99.90;;;;;;5095183;28;20458;-74
2022/10/16 06:08:36;;;;;;;4.33;3.20;;;13.30;99.90;;;;;;5091807;28;20483;-74
2022/10/16 06:11:03;;;;;;;3.20;3.00;;;13.30;99.90;;;;;;5091198;28;20532;-73
2022/10/16 06:13:30;;;;;;;5.30;2.90;;;13.30;99.90;;;;;;5102141;28;20465;-73
2022/10/16 06:16:00;;;;;;;5.03;3.33;;;13.30;99.90;;;;;;5102090;28;20450;-72
2022/10/16 06:18:27;;;;;;;5.53;3.53;;;13.30;99.90;;;;;;5111326;28;20446;-73
2022/10/16 06:20:54;;;;;;;4.53;3.33;;;13.30;99.90;;;;;;5099548;28;20508;-73
2022/10/16 06:23:20;;;;;;;4.10;3.80;;;13.30;99.90;;;;;;5091281;28;20486;-72
2022/10/16 06:25:47;;;;;;;3.47;3.17;;;13.30;99.90;;;;;;5090760;28;20451;-74
2022/10/16 06:28:15;;;;;;;4.50;4.10;;;13.40;99.90;;;;;;5091312;28;20483;-73
2022/10/16 06:30:43;;;;;;;4.90;4.00;;;13.40;99.90;;;;;;5090857;28;20467;-73
2022/10/16 06:33:11;;;;;;;4.70;4.40;;;13.40;99.90;;;;;;5090866;28;20506;-73
2022/10/16 06:35:38;;;;;;;9.17;4.80;;;13.40;99.90;;;;;;5090568;28;20470;-73
2022/10/16 06:38:05;;;;;;;9.10;4.60;;;13.40;99.90;;;;;;5091380;28;20458;-73
2022/10/16 06:40:31;;;;;;;9.80;5.43;;;13.50;99.90;;;;;;5091304;28;20501;-73
2022/10/16 06:42:58;;;;;;;11.20;5.87;;;13.50;99.90;;;;;;5091112;28;20471;-74
2022/10/16 06:45:25;;;;;;;9.83;5.93;;;13.60;99.90;;;;;;5105243;28;20859;-71
2022/10/16 06:47:51;;;;;;;9.27;6.10;;;13.60;99.90;;;;;;5111804;28;20905;-71
2022/10/16 06:50:19;;;;;;;7.67;6.03;;;13.70;99.90;;;;;;5109984;28;20449;-73
2022/10/16 06:52:46;;;;;;;7.47;6.20;;;13.70;99.90;;;;;;5110779;28;20473;-72
2022/10/16 06:55:13;;;;;;;6.13;5.63;;;13.80;99.90;;;;;;5102955;28;20456;-71
2022/10/16 06:57:39;;;;;;;7.63;5.97;;;13.80;99.90;;;;;;5111245;28;20458;-71
2022/10/16 07:00:07;;;;;;;5.33;4.93;;;13.80;99.90;;;;;;5111261;28;20497;-71
2022/10/16 07:02:34;;;;;;;9.10;5.80;;;13.80;99.90;;;;;;5118059;28;20466;-72
2022/10/16 07:05:00;;;;;;;8.50;6.00;;;13.80;99.90;;;;;;5117226;27;20459;-72
2022/10/16 07:07:29;;;;;;;9.40;6.80;;;13.80;99.90;;;;;;5115330;28;20452;-71
2022/10/16 07:09:55;;;;;;;8.60;6.97;;;13.90;99.90;;;;;;5101716;28;20490;-71
2022/10/16 07:12:22;;;;;;;10.10;5.80;;;13.90;99.90;;;;;;5114140;28;20477;-72
2022/10/16 07:14:51;;;;;;;8.20;6.47;;;14.00;99.90;;;;;;5101687;28;20455;-69
2022/10/16 07:17:18;;;;;;;7.73;6.40;;;14.00;99.90;;;;;;5100472;28;20450;-70
2022/10/16 07:19:45;;;;;;;5.73;5.20;;;14.00;99.90;;;;;;5095420;28;20454;-73
2022/10/16 07:22:12;;;;;;;9.80;5.77;;;14.10;99.90;;;;;;5106639;28;20477;-73
2022/10/16 07:24:40;;;;;;;5.77;5.27;;;14.00;99.90;;;;;;5103161;28;20421;-71
2022/10/16 07:27:07;;;;;;;5.90;5.40;;;14.10;99.90;;;;;;5104143;28;20447;-72
2022/10/16 07:29:33;;;;;;;9.07;6.27;;;14.10;99.90;;;;;;5094754;28;20962;-72
2022/10/16 07:32:00;;;;;;;6.80;5.67;;;14.10;99.90;;;;;;5094343;28;20479;-73
2022/10/16 07:34:27;;;;;;;6.60;6.00;;;14.20;99.90;;;;;;5100428;28;20461;-77
2022/10/16 07:36:54;;;;;;;9.20;7.43;;;14.20;99.90;;;;;;5111277;28;20523;-76
2022/10/16 07:39:20;;;;;;;28.90;19.13;;;14.20;99.90;;;;;;5114827;28;20450;-72
2022/10/16 07:41:48;;;;;;;28.63;17.80;;;14.20;99.90;;;;;;5110144;28;20449;-72
2022/10/16 07:44:16;;;;;;;22.60;13.70;;;14.30;99.90;;;;;;5107912;28;20466;-72
2022/10/16 07:46:43;;;;;;;15.77;10.20;;;14.30;99.90;;;;;;5098143;28;20434;-73
2022/10/16 07:49:10;;;;;;;9.00;7.70;;;14.30;99.90;;;;;;5108427;28;20458;-72
2022/10/16 07:51:38;;;;;;;12.67;7.63;;;14.30;99.90;;;;;;5108270;28;21005;-74
2022/10/16 07:54:04;;;;;;;8.87;8.00;;;14.30;99.90;;;;;;5111443;28;20431;-74
2022/10/16 07:56:32;;;;;;;18.97;8.60;;;14.40;99.90;;;;;;5099422;28;20478;-74
2022/10/16 07:59:00;;;;;;;12.37;8.00;;;14.40;99.90;;;;;;5114189;28;20488;-74
2022/10/16 08:01:27;;;;;;;10.10;7.57;;;14.40;99.90;;;;;;5113265;28;20535;-74
2022/10/16 08:03:54;;;;;;;16.47;8.13;;;14.50;99.90;;;;;;5115915;27;20462;-74
2022/10/16 08:06:22;;;;;;;16.50;9.20;;;14.50;99.90;;;;;;5102412;28;20939;-73
2022/10/16 08:08:49;;;;;;;14.83;10.07;;;14.60;99.90;;;;;;5097615;28;20445;-74
2022/10/16 08:11:16;;;;;;;22.37;15.60;;;14.60;99.90;;;;;;5108166;28;20448;-74
2022/10/16 08:13:43;;;;;;;26.53;15.27;;;14.60;99.90;;;;;;5113551;28;20991;-74
2022/10/16 08:16:11;;;;;;;15.90;14.10;;;14.60;99.90;;;;;;5110346;28;20447;-74
2022/10/16 08:18:38;;;;;;;17.90;15.97;;;14.70;99.90;;;;;;5094266;28;20501;-74
2022/10/16 08:21:06;;;;;;;26.10;20.87;;;14.70;99.90;;;;;;5100291;28;20473;-73
2022/10/16 08:23:34;;;;;;;33.93;22.97;;;14.80;99.90;;;;;;5094857;28;20456;-73
2022/10/16 08:26:04;;;;;;;19.00;14.23;;;14.80;99.90;;;;;;5108240;28;20450;-73
2022/10/16 08:28:31;;;;;;;61.90;35.90;;;14.80;99.90;;;;;;5113420;28;20422;-72
2022/10/16 08:31:06;;;;;;;46.40;27.50;;;14.90;99.90;;;;;;5100971;28;20458;-74
2022/10/16 08:33:34;;;;;;;8.90;7.70;;;14.90;99.90;;;;;;5093799;28;20838;-71
2022/10/16 08:36:01;;;;;;;13.70;10.80;;;15.00;99.90;;;;;;5110623;28;20931;-72
2022/10/16 08:38:28;;;;;;;20.13;16.00;;;15.00;99.90;;;;;;5113863;28;20523;-73
2022/10/16 08:40:59;;;;;;;16.73;13.67;;;15.00;99.90;;;;;;5107204;28;20822;-75
2022/10/16 08:43:37;;;;;;;14.20;9.63;;;15.10;99.90;;;;;;5104486;28;20459;-72
2022/10/16 08:46:20;;;;;;;10.30;7.10;;;15.10;99.90;;;;;;5095309;28;20421;-72
2022/10/16 08:48:51;;;;;;;10.50;8.23;;;15.20;99.90;;;;;;5104073;28;20495;-72
2022/10/16 08:51:22;;;;;;;8.47;7.53;;;15.20;99.90;;;;;;5097337;28;20466;-73
2022/10/16 08:53:53;;;;;;;12.67;7.87;;;15.30;99.90;;;;;;5110479;28;20985;-73
2022/10/16 08:56:20;;;;;;;12.30;9.10;;;15.30;99.90;;;;;;5097102;28;20450;-75
2022/10/16 08:58:48;;;;;;;12.70;9.03;;;15.30;99.90;;;;;;5100008;28;20417;-74
2022/10/16 09:01:18;;;;;;;13.10;8.30;;;15.50;99.90;;;;;;5111043;27;20475;-73
2022/10/16 09:04:18;;;;;;;10.30;9.30;;;15.70;99.90;;;;;;5128848;27;20445;-74
2022/10/16 09:06:49;;;;;;;15.87;8.27;;;16.00;99.90;;;;;;5078453;28;20979;-74
2022/10/16 09:09:36;;;;;;;11.33;6.90;;;16.60;99.90;;;;;;5112007;28;20460;-74
2022/10/16 09:12:11;;;;;;;9.13;6.83;;;16.90;99.90;;;;;;5108988;28;20505;-74
2022/10/16 09:14:50;;;;;;;13.23;7.60;;;17.40;99.90;;;;;;5104712;28;20935;-74
2022/10/16 09:17:27;;;;;;;5.70;5.20;;;17.70;99.90;;;;;;5104906;28;20455;-74
2022/10/16 09:20:08;;;;;;;5.03;4.53;;;17.90;99.90;;;;;;5111937;28;20417;-74
2022/10/16 09:22:35;;;;;;;8.63;4.90;;;17.90;99.90;;;;;;5091579;28;20446;-74
2022/10/16 09:25:11;;;;;;;7.93;4.70;;;18.10;99.90;;;;;;5091913;28;20427;-73
2022/10/16 09:27:38;;;;;;;3.63;3.33;;;18.50;99.90;;;;;;5092137;28;20433;-75
2022/10/16 09:30:12;;;;;;;4.80;3.10;;;18.70;99.90;;;;;;5092284;28;20487;-74
2022/10/16 09:32:41;;;;;;;3.20;2.97;;;18.90;99.90;;;;;;5108107;28;20474;-75
2022/10/16 09:35:13;;;;;;;3.67;3.47;;;18.90;99.90;;;;;;5109535;28;21014;-75
2022/10/16 09:37:41;;;;;;;2.90;2.70;;;18.90;99.90;;;;;;5092444;28;20495;-75
2022/10/16 09:40:14;;;;;;;3.97;2.63;;;18.80;99.90;;;;;;5094476;28;20430;-75
2022/10/16 09:42:41;;;;;;;2.10;2.00;;;18.50;99.90;;;;;;5098426;28;20438;-75
2022/10/16 09:45:23;;;;;;;2.90;2.70;;;18.30;99.90;;;;;;5092317;28;20456;-74
2022/10/16 09:47:50;;;;;;;2.60;2.40;;;18.10;99.90;;;;;;5096035;28;20458;-74
2022/10/16 09:50:26;;;;;;;2.63;2.43;;;17.90;99.90;;;;;;5109913;28;20498;-74
2022/10/16 09:53:03;;;;;;;3.53;2.77;;;17.90;99.90;;;;;;5112356;28;20565;-74
2022/10/16 09:55:30;;;;;;;2.67;2.47;;;18.10;99.90;;;;;;5107456;28;20427;-75
2022/10/16 09:57:57;;;;;;;4.10;2.63;;;18.20;99.90;;;;;;5091994;28;20426;-74
2022/10/16 10:00:25;;;;;;;2.70;2.50;;;18.20;99.90;;;;;;5091661;28;20963;-74
2022/10/16 10:02:53;;;;;;;4.50;2.57;;;18.30;99.90;;;;;;5092873;27;20446;-75
2022/10/16 10:05:23;;;;;;;4.43;2.50;;;18.20;99.90;;;;;;5100327;28;20429;-74
2022/10/16 10:07:57;;;;;;;2.83;2.63;;;18.20;99.90;;;;;;5090263;28;20984;-75
2022/10/16 10:10:25;;;;;;;2.10;2.00;;;18.00;99.90;;;;;;5094968;28;20519;-74
2022/10/16 10:12:52;;;;;;;1.90;1.80;;;17.90;99.90;;;;;;5092226;28;20464;-75
2022/10/16 10:15:21;;;;;;;2.40;2.30;;;17.90;99.90;;;;;;5096532;28;20426;-75
2022/10/16 10:17:50;;;;;;;6.33;1.97;;;17.90;99.90;;;;;;5102047;28;20436;-75
2022/10/16 10:20:25;;;;;;;2.43;2.20;;;18.00;99.90;;;;;;5097986;28;20442;-75
2022/10/16 10:22:52;;;;;;;2.47;2.27;;;18.10;99.90;;;;;;5091465;28;20445;-75
2022/10/16 10:25:46;;;;;;;1.83;1.73;;;18.10;99.90;;;;;;5099800;28;20449;-74
2022/10/16 10:28:38;;;;;;;2.30;2.03;;;18.10;99.90;;;;;;5111454;28;20436;-74
2022/10/16 10:31:11;;;;;;;3.60;2.40;;;18.10;99.90;;;;;;5110663;28;20457;-73
2022/10/16 10:33:45;;;;;;;2.03;1.90;;;18.20;99.90;;;;;;5110614;28;20482;-73
2022/10/16 10:36:22;;;;;;;1.70;1.60;;;18.50;99.90;;;;;;5096993;28;20470;-74
2022/10/16 10:38:53;;;;;;;2.60;1.70;;;18.70;99.90;;;;;;5090431;28;20949;-74
2022/10/16 10:41:59;;;;;;;1.87;1.73;;;18.70;99.90;;;;;;5094091;28;21042;-74
2022/10/16 10:44:38;;;;;;;3.87;2.03;;;18.80;99.90;;;;;;5093745;28;20451;-75
2022/10/16 10:47:13;;;;;;;2.20;2.10;;;18.80;99.90;;;;;;5103677;28;20795;-75
2022/10/16 10:49:52;;;;;;;2.23;2.13;;;18.90;99.90;;;;;;5110927;28;20482;-75
2022/10/16 10:52:37;;;;;;;4.40;1.97;;;19.00;99.90;;;;;;5102100;28;20998;-75
2022/10/16 10:55:19;;;;;;;2.23;2.03;;;19.10;99.90;;;;;;5095982;28;20459;-76
2022/10/16 10:58:01;;;;;;;3.73;2.00;;;19.10;99.90;;;;;;5103291;28;20421;-75
2022/10/16 11:00:31;;;;;;;4.67;1.50;;;19.20;99.90;;;;;;5114156;27;20453;-75
2022/10/16 11:03:10;;;;;;;2.50;1.40;;;19.50;99.90;;;;;;5124739;27;20982;-75
2022/10/16 11:05:42;;;;;;;1.87;1.23;;;19.80;99.90;;;;;;5112941;27;20462;-76
2022/10/16 11:08:18;;;;;;;1.40;1.30;;;20.00;99.90;;;;;;5100172;28;20459;-75
2022/10/16 11:10:51;;;;;;;1.37;1.27;;;20.10;99.90;;;;;;5103652;28;20481;-76
2022/10/16 11:13:29;;;;;;;1.60;1.30;;;20.20;99.90;;;;;;5113526;28;20482;-76
2022/10/16 11:15:59;;;;;;;1.30;1.20;;;20.40;99.90;;;;;;5103882;28;20462;-77
2022/10/16 11:18:31;;;;;;;2.40;1.30;;;20.60;99.90;;;;;;5095887;28;20458;-77
2022/10/16 11:21:03;;;;;;;2.13;1.23;;;20.70;99.90;;;;;;5097064;28;20530;-77
2022/10/16 11:23:38;;;;;;;2.50;1.20;;;20.90;99.90;;;;;;5113955;28;20470;-77
2022/10/16 11:26:13;;;;;;;2.13;1.50;;;21.10;99.90;;;;;;5103856;28;20443;-75
2022/10/16 11:28:45;;;;;;;1.87;1.10;;;21.40;99.90;;;;;;5097366;28;20958;-75
2022/10/16 11:31:17;;;;;;;1.87;1.47;;;21.70;99.90;;;;;;5099509;28;21093;-75
2022/10/16 11:33:47;;;;;;;1.43;1.10;;;21.90;99.90;;;;;;5094044;28;20439;-77
2022/10/16 11:36:18;;;;;;;1.37;1.27;;;21.80;99.90;;;;;;5094447;28;20454;-73
2022/10/16 11:38:53;;;;;;;2.07;1.30;;;21.40;99.90;;;;;;5094751;28;20877;-76
2022/10/16 11:41:27;;;;;;;1.50;1.30;;;21.00;99.90;;;;;;5100174;28;20497;-75
2022/10/16 11:44:06;;;;;;;1.13;1.03;;;20.70;99.90;;;;;;5114432;28;20450;-75
2022/10/16 11:46:34;;;;;;;3.50;1.40;;;20.40;99.90;;;;;;5104301;28;20947;-76
2022/10/16 11:49:09;;;;;;;1.40;1.30;;;20.30;99.90;;;;;;5099862;28;20580;-73
2022/10/16 11:51:41;;;;;;;1.40;1.30;;;20.30;99.90;;;;;;5108048;28;20542;-73
2022/10/16 11:54:21;;;;;;;2.90;1.30;;;20.30;99.90;;;;;;5114722;28;20450;-73
2022/10/16 11:56:51;;;;;;;1.93;1.33;;;20.40;99.90;;;;;;5105133;28;20454;-73
2022/10/16 11:59:24;;;;;;;1.13;1.03;;;20.40;99.90;;;;;;5114223;28;20462;-74
2022/10/16 12:01:57;;;;;;;3.10;1.10;;;20.60;99.90;;;;;;5101209;27;20471;-75
2022/10/16 12:04:33;;;;;;;2.03;1.13;;;20.90;99.90;;;;;;5122222;27;20443;-74
2022/10/16 12:07:05;;;;;;;2.67;1.20;;;21.20;99.90;;;;;;5096230;28;20510;-75
2022/10/16 12:09:37;;;;;;;1.27;1.17;;;21.50;99.90;;;;;;5113762;27;20797;-75
2022/10/16 12:12:04;;;;;;;1.30;1.20;;;21.80;99.90;;;;;;5111471;27;20474;-75
2022/10/16 12:14:39;;;;;;;1.43;1.33;;;22.00;99.90;;;;;;5093611;28;20464;-74
2022/10/16 12:17:25;;;;;;;1.50;1.40;;;21.90;99.90;;;;;;5108112;28;21232;-75
2022/10/16 12:20:00;;;;;;;1.50;1.40;;;21.80;99.90;;;;;;5104781;28;20446;-76
2022/10/16 12:22:29;;;;;;;4.80;2.77;;;22.00;99.90;;;;;;5093808;28;20471;-75
2022/10/16 12:24:58;;;;;;;1.60;1.50;;;22.00;99.90;;;;;;5096381;28;20446;-75
2022/10/16 12:27:29;;;;;;;2.13;1.50;;;22.00;99.90;;;;;;5108457;28;20450;-74
2022/10/16 12:29:58;;;;;;;1.90;1.80;;;21.80;99.90;;;;;;5093499;28;20479;-74
2022/10/16 12:32:31;;;;;;;1.87;1.77;;;21.70;99.90;;;;;;5111070;28;20557;-74
2022/10/16 12:34:59;;;;;;;2.00;1.80;;;21.50;99.90;;;;;;5109175;28;20447;-72
2022/10/16 12:37:28;;;;;;;3.00;1.80;;;21.50;99.90;;;;;;5112295;28;20454;-74
2022/10/16 12:39:57;;;;;;;4.13;3.43;;;21.40;99.90;;;;;;5111266;28;20452;-74
2022/10/16 12:42:34;;;;;;;1.87;1.77;;;21.30;99.90;;;;;;5099644;28;20477;-75
2022/10/16 12:45:02;;;;;;;1.50;1.40;;;21.20;99.90;;;;;;5109018;28;20516;-76
2022/10/16 12:47:48;;;;;;;1.50;1.40;;;21.30;99.90;;;;;;5092600;28;20820;-78
2022/10/16 12:50:33;;;;;;;9.30;2.60;;;21.30;99.90;;;;;;5104243;28;20565;-73
2022/10/16 12:53:02;;;;;;;3.13;2.47;;;21.10;99.90;;;;;;5102395;28;20629;-75
2022/10/16 12:55:41;;;;;;;4.83;2.77;;;20.90;99.90;;;;;;5105676;28;20496;-76
2022/10/16 12:58:23;;;;;;;4.87;2.87;;;20.70;99.90;;;;;;5092866;28;20459;-75
2022/10/16 13:00:56;;;;;;;4.90;3.10;;;20.20;99.90;;;;;;5107348;28;20447;-74